Time;durP1;ratioP1;P1;durP2;ratioP2;P2;SDS_P1;SDS_P2;PMS_P1;PMS_P2;Temp;Humidity;BMP_temperature;BMP_pressure;BME280_temperature;BME280_humidity;BME280_pressure;Samples;Min_cycle;Max_cycle;Signal;HPM_P1;HPM_P2
2020/12/23 00:00:58;;;;;;;25.73;12.60;;;;;;;;;;5040106;28;20569;-77
2020/12/23 00:04:04;;;;;;;22.80;12.87;;;;;;;;;;5074767;28;20215;-78
2020/12/23 00:07:14;;;;;;;23.97;12.67;;;;;;;;;;5060591;28;20210;-78
2020/12/23 00:10:20;;;;;;;22.40;12.80;;;;;;;;;;5036922;28;20192;-78
2020/12/23 00:13:29;;;;;;;24.00;12.63;;;;;;;;;;5052710;28;20207;-77
2020/12/23 00:16:33;;;;;;;24.30;12.47;;;;;;;;;;5057475;28;20207;-77
2020/12/23 00:19:38;;;;;;;31.60;13.40;;;;;;;;;;5042903;28;20207;-77
2020/12/23 00:22:43;;;;;;;26.50;12.97;;;;;;;;;;5047328;28;20310;-77
2020/12/23 00:25:48;;;;;;;25.30;13.40;;;;;;;;;;5045031;28;20257;-77
2020/12/23 00:28:53;;;;;;;25.27;12.93;;;;;;;;;;5025333;28;20211;-77
2020/12/23 00:31:58;;;;;;;29.67;12.93;;;;;;;;;;5038934;28;20267;-77
2020/12/23 00:35:03;;;;;;;27.53;12.67;;;;;;;;;;5055736;28;20260;-78
2020/12/23 00:38:09;;;;;;;26.30;13.67;;;;;;;;;;5047227;28;20229;-78
2020/12/23 00:41:14;;;;;;;24.07;12.90;;;;;;;;;;5027955;28;20234;-78
2020/12/23 00:44:19;;;;;;;25.13;13.73;;;;;;;;;;5040748;28;20346;-76
2020/12/23 00:47:24;;;;;;;28.20;13.60;;;;;;;;;;5053402;28;20321;-77
2020/12/23 00:50:31;;;;;;;27.80;13.33;;;;;;;;;;5055732;28;20203;-77
2020/12/23 00:53:36;;;;;;;27.60;13.43;;;;;;;;;;5065803;28;20199;-77
2020/12/23 00:56:41;;;;;;;24.10;12.83;;;;;;;;;;5059334;28;20211;-77
2020/12/23 00:59:46;;;;;;;32.10;13.33;;;;;;;;;;5036823;28;20188;-77
2020/12/23 01:02:50;;;;;;;27.97;13.90;;;;;;;;;;5034693;28;20378;-77
2020/12/23 01:05:56;;;;;;;23.83;12.50;;;;;;;;;;5060427;28;20219;-77
2020/12/23 01:09:01;;;;;;;26.17;14.23;;;;;;;;;;5057360;28;20203;-77
2020/12/23 01:12:06;;;;;;;25.20;13.07;;;;;;;;;;5071500;28;20245;-77
2020/12/23 01:15:11;;;;;;;23.93;12.57;;;;;;;;;;5042320;28;20348;-78
2020/12/23 01:18:16;;;;;;;25.00;13.77;;;;;;;;;;5056552;28;20248;-78
2020/12/23 01:21:25;;;;;;;25.33;13.80;;;;;;;;;;5033498;28;20204;-78
2020/12/23 01:24:30;;;;;;;26.47;13.73;;;;;;;;;;5051441;28;20266;-78
2020/12/23 01:27:35;;;;;;;22.77;13.13;;;;;;;;;;5060016;28;20223;-78
2020/12/23 01:30:40;;;;;;;23.37;13.00;;;;;;;;;;5061236;28;20239;-77
2020/12/23 01:33:46;;;;;;;25.47;11.90;;;;;;;;;;5069990;28;20218;-77
2020/12/23 01:36:51;;;;;;;25.67;11.80;;;;;;;;;;5034567;28;20220;-77
2020/12/23 01:39:57;;;;;;;21.83;11.87;;;;;;;;;;5063326;28;20697;-77
2020/12/23 01:43:02;;;;;;;22.83;11.60;;;;;;;;;;5059891;28;20246;-77
2020/12/23 01:46:08;;;;;;;25.40;12.30;;;;;;;;;;5055241;28;20203;-76
2020/12/23 01:49:14;;;;;;;36.60;11.97;;;;;;;;;;5058810;28;20267;-76
2020/12/23 01:52:19;;;;;;;28.30;11.67;;;;;;;;;;5049313;28;20231;-77
2020/12/23 01:55:25;;;;;;;22.93;11.40;;;;;;;;;;5055337;28;20215;-78
2020/12/23 01:58:29;;;;;;;21.93;11.80;;;;;;;;;;5065000;28;20210;-78
2020/12/23 02:01:37;;;;;;;20.97;11.40;;;;;;;;;;5059327;28;20311;-78
2020/12/23 02:04:41;;;;;;;23.07;11.17;;;;;;;;;;5057913;28;20277;-76
2020/12/23 02:07:47;;;;;;;20.63;11.50;;;;;;;;;;5032538;28;20195;-76
2020/12/23 02:10:52;;;;;;;19.97;10.67;;;;;;;;;;5061281;28;20202;-78
2020/12/23 02:13:57;;;;;;;23.10;11.70;;;;;;;;;;5058853;28;20207;-79
2020/12/23 02:17:03;;;;;;;21.83;11.60;;;;;;;;;;5039025;28;20223;-79
2020/12/23 02:20:09;;;;;;;21.70;11.50;;;;;;;;;;5050703;28;20265;-78
2020/12/23 02:23:15;;;;;;;18.10;9.87;;;;;;;;;;5022709;28;20236;-77
2020/12/23 02:26:20;;;;;;;18.93;9.97;;;;;;;;;;5052290;28;20239;-78
2020/12/23 02:29:25;;;;;;;24.47;9.93;;;;;;;;;;5049075;28;20195;-78
2020/12/23 02:32:30;;;;;;;22.20;10.53;;;;;;;;;;5049736;28;20246;-77
2020/12/23 02:35:35;;;;;;;22.03;10.50;;;;;;;;;;5046387;28;20729;-77
2020/12/23 02:38:40;;;;;;;21.40;10.07;;;;;;;;;;5059485;28;20218;-77
2020/12/23 02:41:45;;;;;;;18.40;10.10;;;;;;;;;;5052651;28;20238;-78
2020/12/23 02:44:50;;;;;;;19.43;10.47;;;;;;;;;;5062206;28;20235;-78
2020/12/23 02:47:55;;;;;;;20.17;10.90;;;;;;;;;;5035215;28;20256;-78
2020/12/23 02:51:01;;;;;;;19.50;9.90;;;;;;;;;;5049394;28;20203;-78
2020/12/23 02:54:06;;;;;;;15.93;9.17;;;;;;;;;;5033745;28;20222;-77
2020/12/23 02:57:11;;;;;;;18.47;9.23;;;;;;;;;;5043940;28;20179;-78
2020/12/23 03:00:16;;;;;;;66.93;10.63;;;;;;;;;;5061620;28;20255;-77
2020/12/23 03:03:21;;;;;;;39.37;10.20;;;;;;;;;;5054403;28;20231;-76
2020/12/23 03:06:27;;;;;;;25.50;9.77;;;;;;;;;;5070690;28;20195;-78
2020/12/23 03:09:33;;;;;;;16.97;9.03;;;;;;;;;;5028338;28;20733;-77
2020/12/23 03:12:37;;;;;;;23.70;9.83;;;;;;;;;;5034636;28;20232;-77
2020/12/23 03:15:42;;;;;;;26.97;10.17;;;;;;;;;;5032921;28;20223;-79
2020/12/23 03:18:47;;;;;;;19.27;9.53;;;;;;;;;;5032400;28;20188;-77
2020/12/23 03:21:51;;;;;;;19.83;9.93;;;;;;;;;;5053397;28;20270;-77
2020/12/23 03:24:57;;;;;;;17.60;9.90;;;;;;;;;;5040834;28;20268;-78
2020/12/23 03:28:02;;;;;;;17.83;9.80;;;;;;;;;;5040341;28;20232;-78
2020/12/23 03:31:07;;;;;;;19.10;9.37;;;;;;;;;;5022894;28;20251;-78
2020/12/23 03:34:11;;;;;;;16.53;9.83;;;;;;;;;;5064746;28;20605;-78
2020/12/23 03:37:16;;;;;;;16.57;9.83;;;;;;;;;;5045425;28;20218;-77
2020/12/23 03:40:22;;;;;;;19.07;9.83;;;;;;;;;;5049481;28;20203;-77
2020/12/23 03:43:27;;;;;;;16.63;9.13;;;;;;;;;;5055706;28;20219;-77
2020/12/23 03:46:32;;;;;;;16.93;9.63;;;;;;;;;;5033851;28;20646;-77
2020/12/23 03:49:37;;;;;;;17.40;9.87;;;;;;;;;;5053186;28;20275;-77
2020/12/23 03:52:43;;;;;;;16.43;8.80;;;;;;;;;;5058523;28;20285;-77
2020/12/23 03:55:49;;;;;;;18.87;10.57;;;;;;;;;;5042567;28;20210;-80
2020/12/23 03:58:55;;;;;;;17.17;9.33;;;;;;;;;;5035185;28;20211;-77
2020/12/23 04:02:00;;;;;;;18.67;9.77;;;;;;;;;;5049072;28;20294;-77
2020/12/23 04:05:05;;;;;;;18.77;9.97;;;;;;;;;;5049822;28;20242;-78
2020/12/23 04:08:11;;;;;;;17.60;9.23;;;;;;;;;;5043428;28;20260;-77
2020/12/23 04:11:17;;;;;;;19.70;9.40;;;;;;;;;;5057083;28;20230;-78
2020/12/23 04:14:22;;;;;;;17.23;9.87;;;;;;;;;;5048791;28;20271;-78
2020/12/23 04:17:27;;;;;;;18.70;8.93;;;;;;;;;;5017172;28;20204;-77
2020/12/23 04:20:33;;;;;;;21.13;10.77;;;;;;;;;;5043093;28;20219;-78
2020/12/23 04:23:38;;;;;;;19.70;10.03;;;;;;;;;;5039145;28;20235;-76
2020/12/23 04:26:44;;;;;;;27.67;10.83;;;;;;;;;;5038883;28;20314;-78
2020/12/23 04:29:48;;;;;;;21.87;10.30;;;;;;;;;;5016750;28;20259;-77
2020/12/23 04:32:53;;;;;;;21.87;11.27;;;;;;;;;;5059362;28;20294;-77
2020/12/23 04:35:57;;;;;;;21.03;10.13;;;;;;;;;;5038859;28;20231;-77
2020/12/23 04:39:02;;;;;;;21.87;10.77;;;;;;;;;;5048140;28;20555;-77
2020/12/23 04:42:08;;;;;;;20.87;10.33;;;;;;;;;;5013822;28;20264;-77
2020/12/23 04:45:12;;;;;;;17.37;9.67;;;;;;;;;;5043994;28;20278;-77
2020/12/23 04:48:20;;;;;;;22.70;10.33;;;;;;;;;;5018310;28;20200;-77
2020/12/23 04:51:29;;;;;;;18.70;9.90;;;;;;;;;;5043274;28;20230;-78
2020/12/23 04:54:34;;;;;;;23.93;11.33;;;;;;;;;;5033588;28;20292;-78
2020/12/23 04:57:40;;;;;;;22.87;11.43;;;;;;;;;;5045752;28;20222;-78
2020/12/23 05:00:45;;;;;;;21.13;10.90;;;;;;;;;;5054430;28;20252;-77
2020/12/23 05:03:50;;;;;;;18.17;9.83;;;;;;;;;;5047347;28;20246;-77
2020/12/23 05:07:05;;;;;;;19.57;10.27;;;;;;;;;;5044895;28;20261;-77
2020/12/23 05:10:09;;;;;;;18.50;10.17;;;;;;;;;;5042748;28;20223;-77
2020/12/23 05:13:15;;;;;;;20.17;9.43;;;;;;;;;;5015049;28;20232;-77
2020/12/23 05:16:23;;;;;;;21.13;10.10;;;;;;;;;;5052838;28;20211;-77
2020/12/23 05:19:29;;;;;;;19.97;9.27;;;;;;;;;;5065157;28;20200;-78
2020/12/23 05:22:34;;;;;;;17.17;9.67;;;;;;;;;;5045514;28;20731;-77
2020/12/23 05:25:38;;;;;;;21.83;10.20;;;;;;;;;;5029357;28;20246;-77
2020/12/23 05:28:45;;;;;;;18.40;10.00;;;;;;;;;;5043515;28;20683;-76
2020/12/23 05:31:50;;;;;;;20.10;9.80;;;;;;;;;;5055227;28;20688;-78
2020/12/23 05:34:58;;;;;;;20.93;10.90;;;;;;;;;;5029922;28;20195;-78
2020/12/23 05:38:03;;;;;;;19.97;9.87;;;;;;;;;;5054002;28;20210;-78
2020/12/23 05:41:08;;;;;;;19.47;11.10;;;;;;;;;;5034393;28;20231;-77
2020/12/23 05:44:21;;;;;;;24.40;11.67;;;;;;;;;;5044158;28;20227;-77
2020/12/23 05:47:27;;;;;;;18.33;9.97;;;;;;;;;;5015975;28;20235;-77
2020/12/23 05:50:31;;;;;;;18.13;8.93;;;;;;;;;;5060410;28;20202;-78
2020/12/23 05:53:37;;;;;;;17.37;9.50;;;;;;;;;;5033344;28;20280;-78
2020/12/23 05:56:43;;;;;;;16.40;8.97;;;;;;;;;;5066561;28;20238;-75
2020/12/23 05:59:49;;;;;;;22.23;10.53;;;;;;;;;;5044640;28;20219;-76
2020/12/23 06:03:04;;;;;;;21.17;10.43;;;;;;;;;;5023047;28;20226;-75
2020/12/23 06:06:10;;;;;;;23.40;11.10;;;;;;;;;;5040047;28;20694;-75
2020/12/23 06:09:17;;;;;;;18.87;9.93;;;;;;;;;;5042044;28;20226;-76
2020/12/23 06:12:23;;;;;;;19.43;9.80;;;;;;;;;;5039785;28;20770;-76
2020/12/23 06:15:31;;;;;;;19.47;10.67;;;;;;;;;;5053949;28;20579;-76
2020/12/23 06:18:37;;;;;;;23.77;10.43;;;;;;;;;;5052583;28;20191;-76
2020/12/23 06:21:42;;;;;;;22.50;11.23;;;;;;;;;;5036585;28;20305;-76
2020/12/23 06:24:47;;;;;;;27.20;12.00;;;;;;;;;;5048223;28;20227;-76
2020/12/23 06:27:53;;;;;;;23.30;11.37;;;;;;;;;;5051704;28;20194;-75
2020/12/23 06:31:01;;;;;;;24.73;12.00;;;;;;;;;;5038066;28;20211;-76
2020/12/23 06:34:05;;;;;;;23.97;12.43;;;;;;;;;;5032235;28;20192;-76
2020/12/23 06:37:16;;;;;;;25.47;12.23;;;;;;;;;;5034895;28;20200;-77
2020/12/23 06:40:21;;;;;;;27.13;11.70;;;;;;;;;;5033120;28;20230;-77
2020/12/23 06:43:53;;;;;;;23.20;10.57;;;;;;;;;;5020123;28;20299;-77
2020/12/23 06:47:08;;;;;;;22.27;11.13;;;;;;;;;;5028043;28;20286;-77
2020/12/23 06:50:31;;;;;;;19.73;11.07;;;;;;;;;;5036381;28;20254;-77
2020/12/23 06:53:36;;;;;;;24.63;11.07;;;;;;;;;;5043531;28;20203;-77
2020/12/23 06:56:47;;;;;;;24.03;11.57;;;;;;;;;;5070828;28;20215;-77
2020/12/23 06:59:52;;;;;;;19.70;10.67;;;;;;;;;;5062568;28;20387;-78
2020/12/23 07:03:35;;;;;;;20.43;10.30;;;;;;;;;;5037147;28;20208;-76
2020/12/23 07:06:41;;;;;;;22.77;10.60;;;;;;;;;;5026830;28;20184;-77
2020/12/23 07:09:51;;;;;;;43.20;11.63;;;;;;;;;;5050126;28;20242;-77
2020/12/23 07:12:57;;;;;;;27.37;10.57;;;;;;;;;;5027632;28;20315;-77
2020/12/23 07:16:04;;;;;;;25.97;11.10;;;;;;;;;;5036069;28;20203;-77
2020/12/23 07:19:09;;;;;;;23.80;10.50;;;;;;;;;;5010988;28;20216;-76
2020/12/23 07:22:15;;;;;;;33.60;11.23;;;;;;;;;;5047524;28;20314;-76
2020/12/23 07:25:19;;;;;;;28.47;11.67;;;;;;;;;;5020991;28;20274;-76
2020/12/23 07:28:27;;;;;;;21.23;11.27;;;;;;;;;;5052941;28;20202;-76
2020/12/23 07:31:32;;;;;;;24.37;11.40;;;;;;;;;;5035447;28;20240;-76
2020/12/23 07:34:38;;;;;;;21.03;10.10;;;;;;;;;;5024613;28;20200;-76
2020/12/23 07:37:44;;;;;;;18.20;9.97;;;;;;;;;;5033663;28;20569;-76
2020/12/23 07:40:48;;;;;;;27.70;10.60;;;;;;;;;;5036841;28;20339;-76
2020/12/23 07:43:53;;;;;;;25.67;11.33;;;;;;;;;;5052490;28;20231;-77
2020/12/23 07:47:02;;;;;;;23.70;11.10;;;;;;;;;;5034257;28;20235;-76
2020/12/23 07:50:07;;;;;;;22.77;10.77;;;;;;;;;;5014093;28;20263;-76
2020/12/23 07:53:13;;;;;;;28.33;10.80;;;;;;;;;;5015399;28;20223;-76
2020/12/23 07:56:18;;;;;;;44.90;9.60;;;;;;;;;;5030676;28;20202;-77
2020/12/23 07:59:26;;;;;;;70.60;11.23;;;;;;;;;;5042082;28;20295;-77
2020/12/23 08:02:31;;;;;;;72.93;10.80;;;;;;;;;;5033853;28;20227;-76
2020/12/23 08:05:35;;;;;;;29.00;10.17;;;;;;;;;;5026948;28;20207;-76
2020/12/23 08:08:42;;;;;;;23.67;9.03;;;;;;;;;;5024145;28;20533;-76
2020/12/23 08:11:47;;;;;;;35.77;9.30;;;;;;;;;;5033533;28;20294;-75
2020/12/23 08:14:52;;;;;;;20.60;9.67;;;;;;;;;;5034681;28;20276;-78
2020/12/23 08:18:00;;;;;;;36.97;8.93;;;;;;;;;;5026023;28;20280;-76
2020/12/23 08:21:09;;;;;;;22.70;8.67;;;;;;;;;;5031071;28;20226;-75
2020/12/23 08:24:16;;;;;;;24.23;8.77;;;;;;;;;;5016269;28;20244;-76
2020/12/23 08:27:21;;;;;;;20.63;7.20;;;;;;;;;;5043173;28;20203;-76
2020/12/23 08:30:26;;;;;;;13.53;7.60;;;;;;;;;;5047997;28;20200;-77
2020/12/23 08:33:31;;;;;;;24.53;8.60;;;;;;;;;;5034481;28;20188;-76
2020/12/23 08:36:37;;;;;;;20.83;8.57;;;;;;;;;;5065375;28;20202;-76
2020/12/23 08:39:42;;;;;;;84.43;9.60;;;;;;;;;;5069627;28;20195;-76
2020/12/23 08:42:54;;;;;;;62.83;9.57;;;;;;;;;;5046612;28;20258;-78
2020/12/23 08:45:59;;;;;;;22.67;9.93;;;;;;;;;;5055882;28;20245;-77
2020/12/23 08:49:04;;;;;;;18.10;9.83;;;;;;;;;;5055163;28;20188;-78
2020/12/23 08:52:24;;;;;;;17.30;9.93;;;;;;;;;;5064681;28;20249;-79
2020/12/23 08:55:29;;;;;;;25.63;11.73;;;;;;;;;;5050126;28;20235;-76
2020/12/23 08:58:33;;;;;;;22.60;11.25;;;;;;;;;;5015829;28;20246;-77
2020/12/23 09:01:38;;;;;;;22.17;10.80;;;;;;;;;;5040498;28;20349;-76
2020/12/23 09:04:43;;;;;;;11.82;7.38;;;;;;;;;;5064307;28;20309;-77
2020/12/23 09:07:48;;;;;;;12.60;6.68;;;;;;;;;;5054338;28;20211;-77
2020/12/23 09:10:54;;;;;;;13.85;8.00;;;;;;;;;;5059256;28;20677;-78
2020/12/23 09:13:59;;;;;;;13.10;7.60;;;;;;;;;;5051906;28;20238;-77
2020/12/23 09:17:05;;;;;;;17.55;8.05;;;;;;;;;;5044610;28;20219;-77
2020/12/23 09:20:10;;;;;;;21.93;11.20;;;;;;;;;;5037345;28;20210;-78
2020/12/23 09:23:20;;;;;;;28.98;14.00;;;;;;;;;;5032777;28;20258;-77
2020/12/23 09:26:28;;;;;;;21.92;10.77;;;;;;;;;;5044025;28;20684;-77
2020/12/23 09:29:42;;;;;;;19.17;8.15;;;;;;;;;;5036660;28;20661;-78
2020/12/23 09:32:53;;;;;;;17.48;8.23;;;;;;;;;;5037079;28;20245;-78
2020/12/23 09:36:04;;;;;;;17.27;8.43;;;;;;;;;;5026938;28;20191;-77
2020/12/23 09:39:09;;;;;;;12.38;6.78;;;;;;;;;;5046852;28;20211;-77
2020/12/23 09:42:15;;;;;;;19.27;9.02;;;;;;;;;;5042507;28;20236;-77
2020/12/23 09:45:20;;;;;;;23.98;10.25;;;;;;;;;;5038901;28;20280;-76
2020/12/23 09:48:25;;;;;;;18.00;8.05;;;;;;;;;;5040974;28;20390;-78
2020/12/23 09:51:30;;;;;;;17.55;8.70;;;;;;;;;;5047611;28;20294;-76
2020/12/23 09:54:34;;;;;;;18.13;8.35;;;;;;;;;;5040362;28;20257;-77
2020/12/23 09:57:40;;;;;;;18.65;7.93;;;;;;;;;;5030483;28;20279;-77
2020/12/23 10:00:46;;;;;;;18.40;8.57;;;;;;;;;;5039112;28;20227;-77
2020/12/23 10:03:51;;;;;;;11.52;6.43;;;;;;;;;;5020623;28;20231;-77
2020/12/23 10:06:55;;;;;;;11.32;7.22;;;;;;;;;;5032254;28;20246;-77
2020/12/23 10:10:00;;;;;;;13.27;7.28;;;;;;;;;;5043463;28;20199;-77
2020/12/23 10:13:07;;;;;;;12.45;6.88;;;;;;;;;;5045951;28;20242;-78
2020/12/23 10:16:11;;;;;;;19.90;10.18;;;;;;;;;;5034968;28;20199;-78
2020/12/23 10:19:16;;;;;;;31.75;14.23;;;;;;;;;;5042386;28;20202;-77
2020/12/23 10:22:21;;;;;;;21.55;10.43;;;;;;;;;;5036637;28;20231;-77
2020/12/23 10:25:26;;;;;;;15.98;8.35;;;;;;;;;;5030697;28;20227;-77
2020/12/23 10:28:32;;;;;;;13.55;7.05;;;;;;;;;;5033732;28;20215;-75
2020/12/23 10:31:36;;;;;;;13.40;7.35;;;;;;;;;;5044450;28;20277;-78
2020/12/23 10:34:41;;;;;;;12.25;6.97;;;;;;;;;;5039237;28;20210;-76
2020/12/23 10:37:46;;;;;;;11.48;6.60;;;;;;;;;;5040928;28;20226;-77
2020/12/23 10:40:51;;;;;;;11.40;6.20;;;;;;;;;;5035982;28;20223;-79
2020/12/23 10:43:57;;;;;;;9.18;5.53;;;;;;;;;;5037373;28;20361;-78
2020/12/23 10:47:01;;;;;;;8.38;5.57;;;;;;;;;;5038125;28;20678;-77
2020/12/23 10:50:06;;;;;;;8.63;5.75;;;;;;;;;;5036147;28;20231;-78
2020/12/23 10:53:11;;;;;;;9.82;5.88;;;;;;;;;;5054079;28;20250;-76
2020/12/23 10:56:16;;;;;;;11.68;5.90;;;;;;;;;;5051054;28;20227;-76
2020/12/23 10:59:23;;;;;;;12.52;6.63;;;;;;;;;;5068236;28;20211;-78
2020/12/23 11:02:28;;;;;;;12.90;6.50;;;;;;;;;;5041970;28;20278;-78
2020/12/23 11:05:33;;;;;;;12.02;6.38;;;;;;;;;;5054852;28;20286;-77
2020/12/23 11:08:38;;;;;;;13.85;6.80;;;;;;;;;;5048438;28;20226;-78
2020/12/23 11:11:42;;;;;;;16.52;7.75;;;;;;;;;;5052009;28;20645;-80
2020/12/23 11:14:49;;;;;;;15.05;6.93;;;;;;;;;;5037371;28;20195;-80
2020/12/23 11:17:53;;;;;;;14.90;7.57;;;;;;;;;;5040977;28;20207;-79
2020/12/23 11:20:58;;;;;;;13.65;7.18;;;;;;;;;;5043717;28;20242;-79
2020/12/23 11:24:03;;;;;;;17.85;8.05;;;;;;;;;;5054609;28;20225;-79
2020/12/23 11:27:08;;;;;;;19.10;7.93;;;;;;;;;;5047215;28;20541;-79
2020/12/23 11:30:14;;;;;;;13.43;7.40;;;;;;;;;;5043693;28;20215;-79
2020/12/23 11:33:18;;;;;;;18.27;9.38;;;;;;;;;;5042551;28;20309;-79
2020/12/23 11:36:23;;;;;;;19.00;7.40;;;;;;;;;;5047982;28;20354;-80
2020/12/23 11:39:29;;;;;;;16.58;8.00;;;;;;;;;;5031742;28;20199;-79
2020/12/23 11:42:41;;;;;;;20.65;9.07;;;;;;;;;;5035435;28;20795;-79
2020/12/23 11:45:47;;;;;;;16.27;7.50;;;;;;;;;;5027686;28;20805;-78
2020/12/23 11:48:51;;;;;;;13.25;6.88;;;;;;;;;;5051153;28;20334;-77
2020/12/23 11:51:57;;;;;;;24.80;11.60;;;;;;;;;;5033843;28;20238;-79
2020/12/23 11:55:01;;;;;;;30.00;13.57;;;;;;;;;;5040882;28;20631;-79
2020/12/23 11:58:06;;;;;;;21.20;10.25;;;;;;;;;;5042120;28;20659;-78
2020/12/23 12:01:21;;;;;;;18.17;8.80;;;;;;;;;;5048673;28;20230;-79
2020/12/23 12:04:29;;;;;;;14.85;8.25;;;;;;;;;;5038751;28;20266;-77
2020/12/23 12:07:34;;;;;;;19.67;7.47;;;;;;;;;;5029487;28;20250;-77
2020/12/23 12:10:39;;;;;;;12.48;6.85;;;;;;;;;;5040490;28;20725;-78
2020/12/23 12:13:43;;;;;;;17.77;8.40;;;;;;;;;;5042091;28;20715;-78
2020/12/23 12:16:49;;;;;;;20.30;9.38;;;;;;;;;;5045411;28;20223;-77
2020/12/23 12:19:54;;;;;;;21.25;8.68;;;;;;;;;;5049360;28;20261;-77
2020/12/23 12:22:58;;;;;;;14.73;8.80;;;;;;;;;;5029445;28;20647;-78
2020/12/23 12:26:03;;;;;;;17.60;8.18;;;;;;;;;;5046700;28;20370;-78
2020/12/23 12:29:08;;;;;;;13.05;7.32;;;;;;;;;;5047652;28;20594;-78
2020/12/23 12:32:14;;;;;;;12.65;6.43;;;;;;;;;;5048838;28;20234;-78
2020/12/23 12:35:19;;;;;;;15.27;7.35;;;;;;;;;;5063787;28;20199;-78
2020/12/23 12:38:23;;;;;;;14.75;7.75;;;;;;;;;;5052702;28;20268;-79
2020/12/23 12:41:29;;;;;;;14.30;6.97;;;;;;;;;;5050919;28;20230;-77
2020/12/23 12:44:34;;;;;;;16.52;7.10;;;;;;;;;;5047436;28;20235;-79
2020/12/23 12:47:39;;;;;;;15.48;6.80;;;;;;;;;;5051230;28;20215;-79
2020/12/23 12:50:44;;;;;;;21.80;10.25;;;;;;;;;;5047308;28;20250;-78
2020/12/23 12:53:48;;;;;;;14.07;8.23;;;;;;;;;;5037165;28;20203;-79
2020/12/23 12:56:56;;;;;;;25.67;12.38;;;;;;;;;;5044426;28;20212;-78
2020/12/23 13:00:00;;;;;;;15.18;7.80;;;;;;;;;;5035405;28;20733;-78
2020/12/23 13:03:06;;;;;;;11.43;6.63;;;;;;;;;;5035926;28;20235;-78
2020/12/23 13:06:11;;;;;;;11.70;6.60;;;;;;;;;;5043939;28;20208;-78
2020/12/23 13:09:15;;;;;;;18.10;10.68;;;;;;;;;;5054712;28;20258;-79
2020/12/23 13:12:20;;;;;;;8.85;5.78;;;;;;;;;;5051013;28;20238;-79
2020/12/23 13:15:25;;;;;;;11.15;5.70;;;;;;;;;;5035635;28;20247;-78
2020/12/23 13:18:30;;;;;;;13.32;6.28;;;;;;;;;;5054382;28;20338;-78
2020/12/23 13:21:35;;;;;;;11.00;6.43;;;;;;;;;;5043855;28;20292;-78
2020/12/23 13:24:40;;;;;;;17.48;9.35;;;;;;;;;;5042789;28;20214;-77
2020/12/23 13:27:44;;;;;;;49.72;18.10;;;;;;;;;;5041206;28;20202;-77
2020/12/23 13:30:49;;;;;;;38.97;14.13;;;;;;;;;;5034337;28;20213;-78
2020/12/23 13:33:57;;;;;;;25.13;10.48;;;;;;;;;;5039529;28;20213;-78
2020/12/23 13:37:02;;;;;;;19.27;9.25;;;;;;;;;;5047444;28;20208;-77
2020/12/23 13:40:06;;;;;;;17.33;9.15;;;;;;;;;;5031125;28;20246;-77
2020/12/23 13:43:12;;;;;;;13.90;8.52;;;;;;;;;;5041761;28;20219;-79
2020/12/23 13:46:18;;;;;;;17.00;8.68;;;;;;;;;;5039776;28;20208;-78
2020/12/23 13:49:24;;;;;;;15.98;9.30;;;;;;;;;;5029474;28;20295;-78
2020/12/23 13:52:29;;;;;;;18.20;10.05;;;;;;;;;;5044764;28;20345;-79
2020/12/23 13:55:34;;;;;;;27.13;12.77;;;;;;;;;;5034628;28;20223;-79
2020/12/23 13:58:39;;;;;;;20.80;10.30;;;;;;;;;;5040216;28;20203;-79
2020/12/23 14:01:43;;;;;;;18.45;10.60;;;;;;;;;;5026127;28;20230;-77
2020/12/23 14:04:49;;;;;;;19.45;10.52;;;;;;;;;;5047791;28;20789;-78
2020/12/23 14:07:54;;;;;;;23.20;10.60;;;;;;;;;;5048768;28;20724;-78
2020/12/23 14:10:59;;;;;;;16.55;9.02;;;;;;;;;;5051769;28;20207;-79
2020/12/23 14:14:04;;;;;;;17.38;9.45;;;;;;;;;;5043696;28;20255;-79
2020/12/23 14:17:09;;;;;;;14.00;8.90;;;;;;;;;;5050695;28;20251;-79
2020/12/23 14:20:14;;;;;;;16.40;9.25;;;;;;;;;;5045929;28;20199;-78
2020/12/23 14:23:20;;;;;;;16.10;9.75;;;;;;;;;;5039183;28;20257;-79
2020/12/23 14:26:25;;;;;;;21.30;9.90;;;;;;;;;;5035785;28;20656;-78
2020/12/23 14:29:32;;;;;;;19.20;10.05;;;;;;;;;;5044610;28;20282;-78
2020/12/23 14:32:39;;;;;;;18.50;10.45;;;;;;;;;;5063976;28;20266;-78
2020/12/23 14:35:45;;;;;;;17.05;10.95;;;;;;;;;;5060858;28;20195;-78
2020/12/23 14:38:50;;;;;;;18.65;10.93;;;;;;;;;;5061237;28;20188;-77
2020/12/23 14:41:55;;;;;;;23.65;11.93;;;;;;;;;;5028142;28;20324;-78
2020/12/23 14:44:59;;;;;;;24.27;12.80;;;;;;;;;;5049470;28;20230;-78
2020/12/23 14:48:04;;;;;;;27.60;13.73;;;;;;;;;;5046492;28;20222;-78
2020/12/23 14:51:10;;;;;;;26.73;13.18;;;;;;;;;;5035222;28;20250;-78
2020/12/23 14:54:15;;;;;;;20.38;11.25;;;;;;;;;;5045134;28;20227;-78
2020/12/23 14:57:19;;;;;;;36.55;12.05;;;;;;;;;;5044582;28;20199;-78
2020/12/23 15:00:28;;;;;;;32.35;11.70;;;;;;;;;;5043233;28;20230;-79
2020/12/23 15:03:33;;;;;;;29.67;13.98;;;;;;;;;;5038892;28;20207;-79
2020/12/23 15:06:39;;;;;;;28.20;15.38;;;;;;;;;;5037636;28;20274;-78
2020/12/23 15:09:43;;;;;;;32.75;17.20;;;;;;;;;;5045500;28;20219;-77
2020/12/23 15:12:48;;;;;;;30.08;15.27;;;;;;;;;;5040466;28;20318;-78
2020/12/23 15:15:53;;;;;;;34.13;16.20;;;;;;;;;;5027361;28;20284;-78
2020/12/23 15:18:58;;;;;;;33.63;17.58;;;;;;;;;;5035755;28;20207;-79
2020/12/23 15:22:04;;;;;;;33.90;17.80;;;;;;;;;;5042464;28;20235;-78
2020/12/23 15:25:08;;;;;;;35.88;17.80;;;;;;;;;;5023262;28;20227;-78
2020/12/23 15:28:13;;;;;;;29.80;14.20;;;;;;;;;;5041346;28;20694;-78
2020/12/23 15:31:18;;;;;;;29.60;15.25;;;;;;;;;;5062370;28;20250;-78
2020/12/23 15:34:23;;;;;;;28.65;15.40;;;;;;;;;;5050316;28;20268;-79
2020/12/23 15:37:32;;;;;;;28.25;14.55;;;;;;;;;;5043781;28;20583;-78
2020/12/23 15:40:37;;;;;;;28.98;14.27;;;;;;;;;;5024110;28;20247;-78
2020/12/23 15:43:42;;;;;;;25.25;13.50;;;;;;;;;;5041206;28;20231;-78
2020/12/23 15:46:47;;;;;;;21.88;12.80;;;;;;;;;;5043113;28;20370;-78
2020/12/23 15:49:52;;;;;;;25.75;13.45;;;;;;;;;;5047410;28;20227;-78
2020/12/23 15:52:57;;;;;;;25.80;13.32;;;;;;;;;;5045107;28;20262;-78
2020/12/23 15:56:02;;;;;;;24.75;13.38;;;;;;;;;;5027816;28;20235;-78
2020/12/23 15:59:08;;;;;;;89.78;15.50;;;;;;;;;;5042584;28;20675;-78
2020/12/23 16:02:12;;;;;;;31.80;17.15;;;;;;;;;;5033566;28;20256;-78
2020/12/23 16:05:17;;;;;;;32.65;16.45;;;;;;;;;;5038545;28;20270;-78
2020/12/23 16:08:23;;;;;;;31.35;16.23;;;;;;;;;;5039055;28;20715;-79
2020/12/23 16:11:27;;;;;;;25.95;14.35;;;;;;;;;;5035681;28;20235;-78
2020/12/23 16:14:32;;;;;;;25.60;13.07;;;;;;;;;;5040331;28;20200;-78
2020/12/23 16:17:37;;;;;;;25.67;14.40;;;;;;;;;;5041168;28;20683;-78
2020/12/23 16:20:42;;;;;;;23.50;13.25;;;;;;;;;;5029452;28;20436;-78
2020/12/23 16:23:47;;;;;;;23.63;14.05;;;;;;;;;;5050148;28;20235;-79
2020/12/23 16:26:52;;;;;;;27.38;13.13;;;;;;;;;;5040395;28;20271;-79
2020/12/23 16:29:57;;;;;;;20.25;11.68;;;;;;;;;;5045217;28;20231;-78
2020/12/23 16:33:02;;;;;;;20.88;12.25;;;;;;;;;;5060504;28;20234;-78
2020/12/23 16:36:22;;;;;;;25.15;13.13;;;;;;;;;;5079137;28;20207;-77
2020/12/23 16:39:30;;;;;;;22.95;13.77;;;;;;;;;;5062880;28;20245;-78
2020/12/23 16:42:36;;;;;;;26.83;13.45;;;;;;;;;;5050065;28;20232;-78
2020/12/23 16:45:41;;;;;;;17.63;11.07;;;;;;;;;;5038054;28;20227;-78
2020/12/23 16:48:46;;;;;;;21.83;11.88;;;;;;;;;;5018730;28;20228;-78
2020/12/23 16:51:51;;;;;;;17.75;10.10;;;;;;;;;;5051060;28;20718;-78
2020/12/23 16:54:57;;;;;;;20.73;10.93;;;;;;;;;;5043663;28;20203;-78
2020/12/23 16:58:02;;;;;;;22.30;11.90;;;;;;;;;;5035371;28;20729;-78
2020/12/23 17:01:09;;;;;;;26.88;12.93;;;;;;;;;;5045680;28;20225;-77
2020/12/23 17:04:14;;;;;;;23.70;12.82;;;;;;;;;;5014343;28;20642;-77
2020/12/23 17:07:19;;;;;;;22.75;12.98;;;;;;;;;;5053948;28;20203;-77
2020/12/23 17:10:25;;;;;;;21.73;12.25;;;;;;;;;;5040609;28;20242;-76
2020/12/23 17:13:30;;;;;;;26.85;12.98;;;;;;;;;;5031734;28;20714;-77
2020/12/23 17:16:35;;;;;;;23.50;12.60;;;;;;;;;;5039180;28;20207;-77
2020/12/23 17:19:40;;;;;;;19.42;11.25;;;;;;;;;;5034126;28;20215;-76
2020/12/23 17:22:45;;;;;;;26.05;14.05;;;;;;;;;;5028717;28;20269;-77
2020/12/23 17:25:51;;;;;;;25.02;12.93;;;;;;;;;;5062834;28;20211;-77
2020/12/23 17:28:59;;;;;;;25.83;13.93;;;;;;;;;;5063699;28;20225;-77
2020/12/23 17:32:04;;;;;;;32.13;14.33;;;;;;;;;;5046386;28;20231;-77
2020/12/23 17:35:11;;;;;;;34.85;15.57;;;;;;;;;;5073740;28;20210;-77
2020/12/23 17:38:16;;;;;;;26.58;13.77;;;;;;;;;;5036049;28;20694;-77
2020/12/23 17:41:26;;;;;;;27.30;14.57;;;;;;;;;;5035175;28;20322;-78
2020/12/23 17:44:32;;;;;;;26.13;14.07;;;;;;;;;;5048949;28;20238;-77
2020/12/23 17:47:37;;;;;;;36.37;17.07;;;;;;;;;;5037866;28;20327;-78
2020/12/23 17:50:42;;;;;;;31.97;15.27;;;;;;;;;;5050246;28;20198;-79
2020/12/23 17:53:46;;;;;;;60.87;27.27;;;;;;;;;;5045120;28;20219;-79
2020/12/23 17:56:54;;;;;;;70.33;25.60;;;;;;;;;;5037038;28;20600;-77
2020/12/23 18:00:01;;;;;;;50.50;21.40;;;;;;;;;;5041072;28;20227;-78
2020/12/23 18:03:06;;;;;;;45.90;18.20;;;;;;;;;;5034926;28;20231;-78
2020/12/23 18:06:11;;;;;;;45.67;18.08;;;;;;;;;;5045871;28;20243;-77
2020/12/23 18:09:19;;;;;;;81.27;17.53;;;;;;;;;;5045942;28;20216;-77